createdAt,value
2019-03-25T05:17:01.698Z,12.80
2019-03-25T05:19:37.307Z,16.07
2019-03-25T05:22:12.547Z,20.00
2019-03-25T05:27:14.994Z,13.67
2019-03-25T05:29:38.658Z,13.43
2019-03-25T05:32:02.706Z,15.70
2019-03-25T05:34:25.938Z,16.70
2019-03-25T05:36:48.917Z,15.63
2019-03-25T05:39:12.012Z,16.83
2019-03-25T05:41:35.079Z,15.33
2019-03-25T05:43:58.175Z,16.63
2019-03-25T05:46:21.168Z,17.03
2019-03-25T05:48:44.373Z,12.90
2019-03-25T05:51:07.471Z,16.77
2019-03-25T05:53:30.512Z,13.47
2019-03-25T05:55:53.604Z,15.37
2019-03-25T05:58:16.690Z,21.77
2019-03-25T06:00:39.867Z,17.30
2019-03-25T06:03:02.957Z,20.67
2019-03-25T06:05:26.136Z,15.43
2019-03-25T06:07:49.323Z,16.83
2019-03-25T06:10:14.223Z,18.10
2019-03-25T06:12:38.303Z,22.47
2019-03-25T06:15:01.372Z,17.40
2019-03-25T06:17:24.446Z,20.47
2019-03-25T06:19:47.435Z,22.33
2019-03-25T06:22:10.440Z,23.03
2019-03-25T06:24:33.532Z,20.53
2019-03-25T06:26:56.640Z,17.97
2019-03-25T06:29:19.741Z,20.90
2019-03-25T06:31:43.036Z,23.67
2019-03-25T06:34:06.031Z,22.93
2019-03-25T06:36:30.795Z,24.50
2019-03-25T06:38:53.963Z,23.80
2019-03-25T06:41:16.994Z,23.50
2019-03-25T06:43:40.076Z,20.67
2019-03-25T06:46:03.083Z,21.60
2019-03-25T06:48:27.213Z,28.27
2019-03-25T06:50:50.328Z,26.13
2019-03-25T06:53:13.442Z,26.07
2019-03-25T06:55:36.521Z,23.63
2019-03-25T06:57:59.504Z,25.47
2019-03-25T07:00:23.707Z,19.67
2019-03-25T07:02:46.790Z,20.23
2019-03-25T07:05:10.087Z,20.33
2019-03-25T07:07:33.187Z,21.93
2019-03-25T07:09:56.183Z,21.13
2019-03-25T07:12:19.897Z,20.10
2019-03-25T07:14:42.997Z,18.40
2019-03-25T07:17:06.159Z,19.60
2019-03-25T07:19:29.250Z,18.47
2019-03-25T07:21:52.452Z,21.93
2019-03-25T07:24:15.763Z,19.07
2019-03-25T07:26:38.898Z,18.30
2019-03-25T07:29:02.067Z,15.40
2019-03-25T07:31:26.313Z,16.80
2019-03-25T07:33:49.412Z,23.70
2019-03-25T07:36:14.508Z,15.73
2019-03-25T07:38:37.643Z,17.27
2019-03-25T07:41:00.893Z,15.13
2019-03-25T07:43:24.008Z,13.17
2019-03-25T07:45:47.243Z,14.17
2019-03-25T07:48:10.504Z,17.70
2019-03-25T07:50:33.612Z,15.37
2019-03-25T07:52:56.655Z,16.60
2019-03-25T07:55:19.677Z,21.10
2019-03-25T07:57:48.630Z,17.67
2019-03-25T08:00:13.916Z,11.23
2019-03-25T08:02:36.014Z,13.33
2019-03-25T08:04:59.015Z,12.87
2019-03-25T08:07:21.998Z,15.87
2019-03-25T08:09:45.075Z,15.00
2019-03-25T08:12:18.750Z,10.37
2019-03-25T08:14:41.737Z,12.80
2019-03-25T08:17:04.828Z,14.97
2019-03-25T08:19:28.031Z,17.57
2019-03-25T08:21:51.111Z,15.47
2019-03-25T08:24:14.108Z,13.13
2019-03-25T08:26:37.089Z,12.97
2019-03-25T08:29:00.103Z,13.43
2019-03-25T08:31:23.088Z,9.40
2019-03-25T08:33:46.167Z,11.73
2019-03-25T08:36:09.179Z,13.23
2019-03-25T08:38:32.255Z,12.70
2019-03-25T08:40:55.347Z,12.23
2019-03-25T08:43:18.423Z,10.37
2019-03-25T08:45:41.399Z,11.43
2019-03-25T08:48:04.416Z,10.00
2019-03-25T08:50:27.528Z,10.70
2019-03-25T08:52:50.604Z,10.33
2019-03-25T08:55:13.610Z,9.17
2019-03-25T08:57:36.580Z,12.10
2019-03-25T08:59:59.565Z,11.10
2019-03-25T09:02:22.655Z,9.00
2019-03-25T09:04:45.735Z,11.23
2019-03-25T09:07:08.737Z,10.83
2019-03-25T09:09:31.704Z,8.77
2019-03-25T09:11:54.689Z,9.30
2019-03-25T09:14:17.784Z,7.63
2019-03-25T09:16:40.867Z,10.40
2019-03-25T09:19:04.232Z,9.27
2019-03-25T09:21:27.320Z,8.07
2019-03-25T09:23:51.392Z,10.00
2019-03-25T09:26:14.400Z,8.73
2019-03-25T09:28:37.374Z,11.07
2019-03-25T09:31:36.359Z,12.67
2019-03-25T09:33:52.790Z,12.90
2019-03-25T09:36:18.403Z,9.53
2019-03-25T09:38:42.880Z,9.70
2019-03-25T09:41:05.847Z,12.33
2019-03-25T09:43:28.843Z,9.57
2019-03-25T09:45:51.829Z,9.27
2019-03-25T09:48:14.836Z,9.37
2019-03-25T09:50:37.924Z,8.33
2019-03-25T09:53:00.923Z,10.47
2019-03-25T09:55:23.924Z,10.97
2019-03-25T09:57:46.908Z,10.50
2019-03-25T10:00:10.636Z,10.97
2019-03-25T10:02:33.743Z,7.97
2019-03-25T10:04:56.731Z,7.07
2019-03-25T10:07:22.442Z,8.67
2019-03-25T10:09:46.547Z,8.83
2019-03-25T10:12:09.530Z,7.47
2019-03-25T10:14:32.616Z,9.03
2019-03-25T10:16:55.600Z,7.27
2019-03-25T10:19:18.577Z,9.90
2019-03-25T10:21:41.705Z,7.37
2019-03-25T10:24:04.909Z,7.47
2019-03-25T10:26:27.974Z,8.43
2019-03-25T10:33:31.484Z,10.20
2019-03-25T10:35:54.554Z,9.37
2019-03-25T10:38:19.797Z,8.77
2019-03-25T10:44:10.871Z,7.80
2019-03-25T10:46:33.969Z,11.27
2019-03-25T10:48:57.151Z,9.20
2019-03-25T10:51:20.134Z,9.90
2019-03-25T10:53:43.150Z,8.47
2019-03-25T10:56:06.328Z,10.87
2019-03-25T10:58:29.366Z,8.30
2019-03-25T11:00:52.427Z,12.47
2019-03-25T11:03:15.616Z,9.57
2019-03-25T11:05:38.713Z,9.60
2019-03-25T11:08:01.796Z,12.00
2019-03-25T11:10:24.958Z,8.30
2019-03-25T11:12:48.059Z,10.47
2019-03-25T11:15:11.341Z,7.33
2019-03-25T11:17:34.423Z,8.13
2019-03-25T11:19:57.394Z,7.93
2019-03-25T11:22:20.399Z,8.67
2019-03-25T11:24:43.576Z,10.97
2019-03-25T11:27:06.597Z,7.03
2019-03-25T11:29:41.320Z,11.83
2019-03-25T11:35:17.846Z,5.00
2019-03-25T11:37:53.059Z,7.53
2019-03-25T11:40:29.256Z,6.70
2019-03-25T11:43:06.291Z,9.87
2019-03-25T11:45:41.335Z,7.47
2019-03-25T11:48:16.258Z,6.43
2019-03-25T11:50:52.280Z,8.67
2019-03-25T11:53:37.650Z,8.33
2019-03-25T11:56:12.407Z,6.07
2019-03-25T11:58:47.503Z,9.83
2019-03-25T12:01:10.498Z,8.63
2019-03-25T12:03:52.679Z,11.17
2019-03-25T12:06:34.924Z,9.00
2019-03-25T12:09:09.987Z,11.23
2019-03-25T12:11:45.107Z,9.53
2019-03-25T12:14:20.071Z,11.60
2019-03-25T12:16:58.843Z,11.53
2019-03-25T13:45:36.789Z,5.47
2019-03-25T13:48:11.799Z,5.93
2019-03-25T13:51:06.316Z,6.93
2019-03-25T13:53:40.940Z,4.53
2019-03-25T13:56:16.041Z,3.43
2019-03-25T13:58:51.948Z,4.30
2019-03-25T14:01:28.487Z,3.83
2019-03-25T14:06:43.328Z,3.40
2019-03-25T14:09:18.448Z,4.60
2019-03-25T14:11:53.355Z,4.47
2019-03-25T14:14:28.436Z,4.63
2019-03-25T14:17:03.446Z,5.03
2019-03-25T14:22:16.478Z,5.30
2019-03-25T14:24:51.563Z,5.47
2019-03-25T14:27:26.703Z,4.77
2019-03-25T14:32:45.659Z,6.00
2019-03-25T14:35:20.717Z,7.23
2019-03-25T14:37:55.562Z,5.63
2019-03-25T14:43:28.918Z,4.87
2019-03-25T14:46:03.755Z,7.63
2019-03-25T14:48:38.864Z,6.37
2019-03-25T14:51:26.389Z,7.00
2019-03-25T14:54:01.174Z,5.50
2019-03-25T14:56:36.062Z,4.77
2019-03-25T14:59:11.226Z,4.80
2019-03-25T15:01:47.836Z,5.50
2019-03-25T15:04:23.545Z,4.87
2019-03-25T15:06:58.527Z,4.13
2019-03-25T15:09:33.451Z,6.10
2019-03-25T15:12:08.581Z,5.23
2019-03-25T15:14:43.686Z,4.53
2019-03-25T15:20:14.135Z,4.60
2019-03-25T15:22:49.312Z,4.83
2019-03-25T15:25:24.385Z,3.70
2019-03-25T15:28:02.591Z,4.13
2019-03-25T15:30:41.447Z,3.60
2019-03-25T15:33:16.484Z,4.53
